Time;durP1;ratioP1;P1;durP2;ratioP2;P2;SDS_P1;SDS_P2;PMS_P1;PMS_P2;Temp;Humidity;BMP_temperature;BMP_pressure;BME280_temperature;BME280_humidity;BME280_pressure;Samples;Min_cycle;Max_cycle;Signal;HPM_P1;HPM_P2
2023/01/06 00:01:20;;;;;;;14.38;3.33;;;10.30;99.90;;;;;;5006453;28;20071;-71
2023/01/06 00:03:51;;;;;;;13.87;3.07;;;10.40;99.90;;;;;;5011611;28;20125;-71
2023/01/06 00:06:17;;;;;;;12.02;2.95;;;10.40;99.90;;;;;;5013467;28;20049;-71
2023/01/06 00:08:42;;;;;;;12.23;2.90;;;10.40;99.90;;;;;;5014575;28;20042;-71
2023/01/06 00:11:13;;;;;;;13.17;2.80;;;10.40;99.90;;;;;;5004670;28;20045;-72
2023/01/06 00:13:40;;;;;;;13.85;2.25;;;10.30;99.90;;;;;;5016494;28;20048;-71
2023/01/06 00:16:13;;;;;;;16.17;2.63;;;10.40;99.90;;;;;;5014449;28;20625;-75
2023/01/06 00:18:39;;;;;;;10.65;3.10;;;10.50;99.90;;;;;;4991613;28;20099;-73
2023/01/06 00:21:06;;;;;;;12.90;2.78;;;10.50;99.90;;;;;;4996284;28;20057;-71
2023/01/06 00:23:32;;;;;;;15.55;3.28;;;10.50;99.90;;;;;;4997426;28;20049;-72
2023/01/06 00:25:58;;;;;;;13.13;2.40;;;10.50;99.90;;;;;;5010563;28;20091;-68
2023/01/06 00:28:23;;;;;;;10.25;2.10;;;10.50;99.90;;;;;;4996991;28;20046;-68
2023/01/06 00:30:49;;;;;;;16.17;2.57;;;10.50;99.90;;;;;;4997998;28;20196;-68
2023/01/06 00:33:18;;;;;;;18.60;3.20;;;10.50;99.90;;;;;;5002972;28;20079;-71
2023/01/06 00:35:44;;;;;;;9.15;3.22;;;10.50;99.90;;;;;;5011529;28;20049;-71
2023/01/06 00:38:10;;;;;;;12.67;2.37;;;10.50;99.90;;;;;;4997918;28;20474;-70
2023/01/06 00:40:36;;;;;;;10.35;2.80;;;10.60;99.90;;;;;;4997204;28;20151;-68
2023/01/06 00:43:02;;;;;;;;;;;10.60;99.90;;;;;;5003150;28;20061;-71
2023/01/06 00:45:28;;;;;;;13.77;2.25;;;10.60;99.90;;;;;;5013380;28;19917;-71
2023/01/06 00:47:54;;;;;;;7.67;2.13;;;10.60;99.90;;;;;;4999985;28;20493;-72
2023/01/06 00:50:19;;;;;;;10.00;2.37;;;10.60;99.90;;;;;;5020209;28;20128;-71
2023/01/06 00:52:47;;;;;;;16.37;3.03;;;10.60;99.90;;;;;;5012266;28;20041;-71
2023/01/06 00:55:13;;;;;;;10.82;2.03;;;10.60;99.90;;;;;;5018500;28;20283;-71
2023/01/06 00:57:39;;;;;;;17.67;2.92;;;10.50;99.90;;;;;;5022722;28;20037;-69
2023/01/06 01:00:07;;;;;;;8.50;1.83;;;10.50;99.90;;;;;;5003411;28;20141;-69
2023/01/06 01:02:33;;;;;;;4.88;2.03;;;10.50;99.90;;;;;;4987563;28;20045;-71
2023/01/06 01:04:58;;;;;;;14.77;1.83;;;10.50;99.90;;;;;;5010146;28;20370;-69
2023/01/06 01:07:24;;;;;;;6.93;1.90;;;10.50;99.90;;;;;;5021258;28;20111;-72
2023/01/06 01:09:50;;;;;;;6.60;2.00;;;10.50;99.90;;;;;;5014720;28;20124;-71
2023/01/06 01:12:15;;;;;;;11.53;2.30;;;10.50;99.90;;;;;;5004487;28;20052;-69
2023/01/06 01:14:50;;;;;;;5.88;1.42;;;10.50;99.90;;;;;;4987692;28;20099;-69
2023/01/06 01:17:19;;;;;;;9.00;1.60;;;10.50;99.90;;;;;;5024985;28;20099;-68
2023/01/06 01:19:48;;;;;;;9.45;2.38;;;10.50;99.90;;;;;;5007298;28;20123;-68
2023/01/06 01:22:14;;;;;;;6.00;1.85;;;10.40;99.90;;;;;;4989129;28;20042;-69
2023/01/06 01:24:40;;;;;;;4.82;1.40;;;10.40;99.90;;;;;;5025832;28;20132;-70
2023/01/06 01:27:06;;;;;;;8.77;2.10;;;10.40;99.90;;;;;;4987638;28;20376;-69
2023/01/06 01:29:32;;;;;;;10.65;1.60;;;10.40;99.90;;;;;;5006550;28;20167;-68
2023/01/06 01:31:58;;;;;;;7.15;1.70;;;10.40;99.90;;;;;;5025815;28;20159;-70
2023/01/06 01:34:24;;;;;;;2.78;1.50;;;10.40;99.90;;;;;;5015126;28;20585;-68
2023/01/06 01:36:51;;;;;;;9.38;2.40;;;10.30;99.90;;;;;;5027017;28;20111;-69
2023/01/06 01:39:19;;;;;;;6.07;1.90;;;10.30;99.90;;;;;;5008302;28;20125;-70
2023/01/06 01:41:46;;;;;;;6.55;1.90;;;10.30;99.90;;;;;;5008949;28;20506;-69
2023/01/06 01:44:49;;;;;;;11.52;1.88;;;10.40;99.90;;;;;;5007609;28;20061;-69
2023/01/06 01:47:21;;;;;;;5.53;2.60;;;10.30;99.90;;;;;;4992001;28;20495;-69
2023/01/06 01:49:50;;;;;;;10.98;2.80;;;10.30;99.90;;;;;;5000946;28;20041;-70
2023/01/06 01:52:17;;;;;;;7.72;2.42;;;10.20;99.90;;;;;;5010023;28;20042;-69
2023/01/06 01:54:44;;;;;;;6.70;2.03;;;10.30;99.90;;;;;;5022735;28;20056;-70
2023/01/06 01:57:17;;;;;;;9.95;2.25;;;10.20;99.90;;;;;;5024834;28;20038;-70
2023/01/06 01:59:44;;;;;;;8.35;2.13;;;10.30;99.90;;;;;;5016661;28;20711;-70
2023/01/06 02:02:12;;;;;;;7.47;2.08;;;10.30;99.90;;;;;;5022897;28;20627;-70
2023/01/06 02:04:41;;;;;;;7.57;2.10;;;10.20;99.90;;;;;;5021053;28;20060;-70
2023/01/06 02:07:07;;;;;;;5.57;2.13;;;10.30;99.90;;;;;;5018589;28;20099;-69
2023/01/06 02:10:08;;;;;;;5.90;2.65;;;10.20;99.90;;;;;;5014899;28;20076;-69
2023/01/06 02:12:34;;;;;;;8.00;2.95;;;10.30;99.90;;;;;;4997804;28;20084;-70
2023/01/06 02:15:00;;;;;;;9.35;2.72;;;10.30;99.90;;;;;;5005289;28;20562;-69
2023/01/06 02:17:49;;;;;;;6.03;2.23;;;10.30;99.90;;;;;;5022152;28;20140;-69
2023/01/06 02:20:26;;;;;;;5.60;2.50;;;10.30;99.90;;;;;;5002425;28;20068;-68
2023/01/06 02:22:54;;;;;;;7.88;2.58;;;10.30;99.90;;;;;;4988448;28;20044;-70
2023/01/06 02:25:52;;;;;;;8.43;1.85;;;10.30;99.90;;;;;;5007046;28;20061;-70
2023/01/06 02:28:55;;;;;;;10.13;2.45;;;10.30;99.90;;;;;;4988321;28;20041;-68
2023/01/06 02:31:43;;;;;;;4.28;1.67;;;10.30;99.90;;;;;;5015917;28;20325;-70
2023/01/06 02:34:24;;;;;;;6.15;1.63;;;10.30;99.90;;;;;;5005095;28;20083;-68
2023/01/06 02:37:21;;;;;;;7.32;1.73;;;10.30;99.90;;;;;;5017439;28;20503;-70
2023/01/06 02:40:12;;;;;;;5.03;1.77;;;10.20;99.90;;;;;;5002735;28;20041;-69
2023/01/06 02:42:41;;;;;;;4.88;1.30;;;10.20;99.90;;;;;;4998958;28;20037;-70
2023/01/06 02:45:30;;;;;;;6.68;1.58;;;10.20;99.90;;;;;;5023381;28;20085;-70
2023/01/06 02:48:03;;;;;;;7.43;1.50;;;10.20;99.90;;;;;;4997076;28;20132;-70
2023/01/06 02:50:41;;;;;;;3.35;1.40;;;10.20;99.90;;;;;;5004905;28;20045;-70
2023/01/06 02:53:06;;;;;;;4.70;1.40;;;10.20;99.90;;;;;;5025539;28;20041;-69
2023/01/06 02:55:39;;;;;;;4.10;1.53;;;10.20;99.90;;;;;;4992328;28;20041;-70
2023/01/06 02:58:27;;;;;;;3.00;1.48;;;10.20;99.90;;;;;;4990509;28;20057;-69
2023/01/06 03:01:09;;;;;;;9.38;1.40;;;10.20;99.90;;;;;;5002633;28;20510;-70
2023/01/06 03:03:38;;;;;;;4.85;2.03;;;10.20;99.90;;;;;;4998111;28;20049;-70
2023/01/06 03:06:12;;;;;;;4.95;1.85;;;10.20;99.90;;;;;;5023001;28;20120;-69
2023/01/06 03:08:39;;;;;;;4.38;1.75;;;10.20;99.90;;;;;;5003579;28;20334;-70
2023/01/06 03:11:05;;;;;;;5.30;2.45;;;10.20;99.90;;;;;;5018963;28;20167;-70
2023/01/06 03:13:37;;;;;;;3.63;2.33;;;10.20;99.90;;;;;;5025053;28;20460;-70
2023/01/06 03:16:03;;;;;;;8.30;2.40;;;10.20;99.90;;;;;;5001822;28;20132;-70
2023/01/06 03:18:30;;;;;;;4.80;2.53;;;10.20;99.90;;;;;;5012281;28;20373;-69
2023/01/06 03:21:00;;;;;;;3.67;2.38;;;10.20;99.90;;;;;;4983557;28;20573;-70
2023/01/06 03:23:26;;;;;;;5.07;2.15;;;10.20;99.90;;;;;;5014770;28;20126;-69
2023/01/06 03:25:52;;;;;;;6.13;2.27;;;10.20;99.90;;;;;;5004048;28;20049;-70
2023/01/06 03:28:17;;;;;;;8.80;2.40;;;10.20;99.90;;;;;;5018222;28;20085;-70
2023/01/06 03:30:52;;;;;;;7.27;3.37;;;10.20;99.90;;;;;;5020129;28;20041;-71
2023/01/06 03:33:51;;;;;;;7.07;2.50;;;10.20;99.90;;;;;;5021203;28;20041;-70
2023/01/06 03:36:25;;;;;;;4.85;2.90;;;10.30;99.90;;;;;;4999459;28;20467;-70
2023/01/06 03:39:01;;;;;;;8.30;3.30;;;10.20;99.90;;;;;;5000283;28;20495;-70
2023/01/06 03:44:47;;;;;;;6.88;3.42;;;10.30;99.90;;;;;;4998485;28;20041;-72
2023/01/06 03:47:36;;;;;;;5.57;3.58;;;10.30;99.90;;;;;;5012144;28;20111;-71
2023/01/06 03:50:11;;;;;;;6.50;3.90;;;10.30;99.90;;;;;;5015916;28;20037;-70
2023/01/06 03:52:46;;;;;;;9.32;3.65;;;10.30;99.90;;;;;;5000038;28;20498;-70
2023/01/06 03:55:19;;;;;;;10.77;3.58;;;10.30;99.90;;;;;;4997766;28;20488;-69
2023/01/06 03:57:49;;;;;;;9.88;3.97;;;10.30;99.90;;;;;;5021093;28;20099;-69
2023/01/06 04:00:21;;;;;;;5.90;3.75;;;10.40;99.90;;;;;;5014771;28;20072;-70
2023/01/06 04:02:47;;;;;;;6.40;3.80;;;10.40;99.90;;;;;;5002217;28;20055;-70
2023/01/06 04:05:17;;;;;;;7.80;3.35;;;10.40;99.90;;;;;;5013037;28;20535;-70
2023/01/06 04:07:43;;;;;;;4.47;2.75;;;10.40;99.90;;;;;;4999879;28;20503;-70
2023/01/06 04:10:11;;;;;;;5.47;2.90;;;10.30;99.90;;;;;;5018905;28;20541;-71
2023/01/06 04:12:40;;;;;;;7.38;2.95;;;10.30;99.90;;;;;;4998055;28;20042;-70
2023/01/06 04:15:12;;;;;;;5.85;3.30;;;10.30;99.90;;;;;;5017000;28;20107;-70
2023/01/06 04:17:39;;;;;;;4.28;2.17;;;10.30;99.90;;;;;;5019778;28;20041;-70
2023/01/06 04:20:08;;;;;;;3.63;2.13;;;10.30;99.90;;;;;;5014668;28;20073;-70
2023/01/06 04:22:34;;;;;;;4.07;1.83;;;10.30;99.90;;;;;;4999298;28;20037;-70
2023/01/06 04:25:00;;;;;;;4.55;1.85;;;10.30;99.90;;;;;;5020826;28;20571;-69
2023/01/06 04:27:25;;;;;;;3.87;1.97;;;10.30;99.90;;;;;;5021163;28;20159;-69
2023/01/06 04:29:51;;;;;;;4.07;2.00;;;10.40;99.90;;;;;;5021747;28;20305;-69
2023/01/06 04:32:17;;;;;;;4.57;1.50;;;10.40;99.90;;;;;;4998358;28;20255;-70
2023/01/06 04:34:43;;;;;;;4.83;2.50;;;10.30;99.90;;;;;;5020759;28;20046;-68
2023/01/06 04:37:08;;;;;;;2.95;1.60;;;10.40;99.90;;;;;;5017927;28;20116;-69
2023/01/06 04:39:34;;;;;;;3.57;1.77;;;10.40;99.90;;;;;;5015361;28;20046;-68
2023/01/06 04:41:59;;;;;;;2.33;1.47;;;10.30;99.90;;;;;;4997254;28;20079;-69
2023/01/06 04:44:25;;;;;;;4.73;2.60;;;10.40;99.90;;;;;;5023020;28;20045;-70
2023/01/06 04:46:51;;;;;;;3.93;1.97;;;10.30;99.90;;;;;;5012840;28;20294;-70
2023/01/06 04:49:16;;;;;;;3.37;1.70;;;10.30;99.90;;;;;;5018176;28;20050;-69
2023/01/06 04:51:42;;;;;;;3.93;1.77;;;10.30;99.90;;;;;;5016482;28;20049;-70
2023/01/06 04:54:07;;;;;;;3.03;1.40;;;10.40;99.90;;;;;;5000361;28;20469;-70
2023/01/06 04:56:33;;;;;;;6.47;2.13;;;10.30;99.90;;;;;;4999631;28;20118;-70
2023/01/06 04:58:59;;;;;;;4.17;1.30;;;10.30;99.90;;;;;;5012954;28;20114;-69
2023/01/06 05:01:25;;;;;;;3.30;1.30;;;10.40;99.90;;;;;;5000218;28;20041;-70
2023/01/06 05:03:51;;;;;;;2.85;1.30;;;10.30;99.90;;;;;;5020710;28;20057;-69
2023/01/06 05:06:17;;;;;;;3.95;1.70;;;10.30;99.90;;;;;;4998987;28;20415;-70
2023/01/06 05:08:45;;;;;;;3.67;1.50;;;10.30;99.90;;;;;;4993733;28;20138;-70
2023/01/06 05:11:22;;;;;;;3.30;1.33;;;10.30;99.90;;;;;;4998614;28;20145;-70
2023/01/06 05:13:48;;;;;;;6.75;1.40;;;10.40;99.90;;;;;;5017064;28;20360;-70
2023/01/06 05:16:26;;;;;;;2.03;1.50;;;10.30;99.90;;;;;;5017913;28;20038;-70
2023/01/06 05:18:53;;;;;;;2.90;1.27;;;10.30;99.90;;;;;;4999270;28;20124;-70
2023/01/06 05:21:19;;;;;;;3.17;1.17;;;10.30;99.90;;;;;;4996849;28;20054;-69
2023/01/06 05:23:48;;;;;;;2.97;1.80;;;10.30;99.90;;;;;;5001237;28;20045;-69
2023/01/06 05:26:20;;;;;;;3.88;1.25;;;10.30;99.90;;;;;;4995417;28;20138;-69
2023/01/06 05:28:46;;;;;;;5.38;1.60;;;10.40;99.90;;;;;;4987478;28;20041;-70
2023/01/06 05:31:12;;;;;;;3.20;1.88;;;10.40;99.90;;;;;;5019691;28;20259;-70
2023/01/06 05:33:38;;;;;;;3.10;1.50;;;10.30;99.90;;;;;;5001946;28;20579;-69
2023/01/06 05:36:06;;;;;;;4.25;1.50;;;10.30;99.90;;;;;;4999092;28;20099;-69
2023/01/06 05:38:32;;;;;;;2.00;1.20;;;10.30;99.90;;;;;;5017676;28;20128;-69
2023/01/06 05:40:58;;;;;;;5.03;1.67;;;10.30;99.90;;;;;;4995516;28;20146;-69
2023/01/06 05:43:25;;;;;;;3.23;1.50;;;10.20;99.90;;;;;;5018924;28;20056;-70
2023/01/06 05:45:52;;;;;;;5.78;1.67;;;10.20;99.90;;;;;;5020019;22;20046;-73
2023/01/06 05:48:18;;;;;;;4.65;1.55;;;10.20;99.90;;;;;;4986420;28;20045;-73
2023/01/06 05:50:43;;;;;;;7.30;2.23;;;10.10;99.90;;;;;;4987177;28;20054;-72
2023/01/06 05:53:09;;;;;;;4.10;2.07;;;10.10;99.90;;;;;;4994841;28;20361;-72
2023/01/06 05:55:35;;;;;;;4.17;2.07;;;10.10;99.90;;;;;;5007704;28;20045;-73
2023/01/06 05:58:00;;;;;;;2.53;1.60;;;10.10;99.90;;;;;;4990216;28;20061;-72
2023/01/06 06:00:26;;;;;;;4.73;1.73;;;10.10;99.90;;;;;;5007007;28;20302;-72
2023/01/06 06:02:52;;;;;;;4.67;1.67;;;10.10;99.90;;;;;;4986594;28;20056;-72
2023/01/06 06:05:17;;;;;;;6.37;1.90;;;10.00;99.90;;;;;;4972642;28;20311;-74
2023/01/06 06:07:43;;;;;;;3.75;2.10;;;10.00;99.90;;;;;;4987568;28;20432;-73
2023/01/06 06:10:09;;;;;;;4.17;2.10;;;10.00;99.90;;;;;;4989382;28;20475;-72
2023/01/06 06:12:35;;;;;;;5.27;2.00;;;10.10;99.90;;;;;;4988082;28;20127;-74
2023/01/06 06:15:01;;;;;;;3.75;2.35;;;10.00;99.90;;;;;;4989650;28;20057;-74
2023/01/06 06:17:29;;;;;;;4.25;2.17;;;10.10;99.90;;;;;;5002944;28;20093;-74
2023/01/06 06:19:55;;;;;;;3.53;1.92;;;10.00;99.90;;;;;;5005721;28;20073;-73
2023/01/06 06:22:20;;;;;;;3.30;2.10;;;10.00;99.90;;;;;;4988674;28;20046;-73
2023/01/06 06:24:46;;;;;;;7.23;3.20;;;10.00;99.90;;;;;;4988031;28;20447;-73
2023/01/06 06:27:12;;;;;;;2.93;2.27;;;10.10;99.90;;;;;;4996454;28;20231;-72
2023/01/06 06:29:40;;;;;;;6.03;2.90;;;10.10;99.90;;;;;;5005703;28;20130;-74
2023/01/06 06:32:06;;;;;;;3.88;2.15;;;10.00;99.90;;;;;;4988671;28;20050;-73
2023/01/06 06:34:32;;;;;;;3.37;2.10;;;10.00;99.90;;;;;;4988698;28;20049;-73
2023/01/06 06:36:58;;;;;;;5.37;2.63;;;10.00;99.90;;;;;;5005213;28;20072;-72
2023/01/06 06:39:23;;;;;;;4.57;2.20;;;10.10;99.90;;;;;;4991345;28;20709;-75
2023/01/06 06:41:49;;;;;;;3.10;1.90;;;10.00;99.90;;;;;;4986595;28;20052;-73
2023/01/06 06:44:14;;;;;;;3.50;1.87;;;10.00;99.90;;;;;;4988786;28;20053;-75
2023/01/06 06:46:40;;;;;;;4.93;1.93;;;10.00;99.90;;;;;;4987516;28;20038;-73
2023/01/06 06:49:06;;;;;;;3.90;1.97;;;10.00;99.90;;;;;;5001089;28;20068;-74
2023/01/06 06:51:31;;;;;;;4.18;1.88;;;10.00;99.90;;;;;;4987049;28;20385;-74
2023/01/06 06:53:57;;;;;;;2.87;2.30;;;10.00;99.90;;;;;;4984707;28;20054;-73
2023/01/06 06:56:23;;;;;;;3.17;2.03;;;10.10;99.90;;;;;;4990416;28;20265;-74
2023/01/06 06:58:49;;;;;;;2.97;1.80;;;10.00;99.90;;;;;;4987389;28;20053;-74
2023/01/06 07:01:17;;;;;;;5.15;2.22;;;10.00;99.90;;;;;;5001161;28;20096;-72
2023/01/06 07:03:43;;;;;;;7.10;2.15;;;10.00;99.90;;;;;;5001260;28;20128;-73
2023/01/06 07:06:13;;;;;;;5.57;2.42;;;10.00;99.90;;;;;;4988288;28;20084;-72
2023/01/06 07:08:43;;;;;;;3.00;1.42;;;10.00;99.90;;;;;;5002462;28;20042;-72
2023/01/06 07:11:08;;;;;;;5.05;1.83;;;10.00;99.90;;;;;;4984926;28;20037;-72
2023/01/06 07:13:34;;;;;;;2.93;1.83;;;10.10;99.90;;;;;;4985565;28;20435;-73
2023/01/06 07:15:59;;;;;;;3.53;1.70;;;10.00;99.90;;;;;;5005536;28;20045;-75
2023/01/06 07:18:25;;;;;;;2.97;1.73;;;10.00;99.90;;;;;;5004414;28;20069;-72
2023/01/06 07:20:54;;;;;;;3.33;1.50;;;10.00;99.90;;;;;;4983549;28;20078;-73
2023/01/06 07:23:21;;;;;;;6.00;1.67;;;10.00;99.90;;;;;;4989411;28;20509;-72
2023/01/06 07:25:54;;;;;;;3.17;1.48;;;10.00;99.90;;;;;;5003723;28;20045;-72
2023/01/06 07:28:20;;;;;;;2.53;0.88;;;10.00;99.90;;;;;;4984577;28;20050;-71
2023/01/06 07:30:46;;;;;;;1.23;0.80;;;10.00;99.90;;;;;;5004477;28;20120;-71
2023/01/06 07:33:11;;;;;;;7.83;1.30;;;10.00;99.90;;;;;;5005183;28;20499;-71
2023/01/06 07:35:37;;;;;;;6.00;0.57;;;9.90;99.90;;;;;;5001838;28;20141;-72
2023/01/06 07:38:05;;;;;;;9.67;1.07;;;9.80;99.90;;;;;;4989471;28;20495;-72
2023/01/06 07:40:31;;;;;;;4.55;0.88;;;9.70;99.90;;;;;;4985414;28;20523;-72
2023/01/06 07:42:56;;;;;;;5.80;1.05;;;9.60;99.90;;;;;;5007436;28;20346;-72
2023/01/06 07:45:22;;;;;;;4.78;1.02;;;9.50;99.90;;;;;;5005997;28;20041;-72
2023/01/06 07:47:48;;;;;;;5.82;0.60;;;9.40;99.90;;;;;;5007300;28;20085;-71
2023/01/06 07:50:14;;;;;;;6.43;0.77;;;9.30;99.90;;;;;;5005700;28;20147;-72
2023/01/06 07:52:40;;;;;;;5.20;0.63;;;9.30;99.90;;;;;;4989772;28;20065;-71
2023/01/06 07:55:06;;;;;;;13.60;1.57;;;9.20;99.90;;;;;;5004505;28;20041;-75
2023/01/06 07:57:31;;;;;;;6.70;0.60;;;9.10;99.90;;;;;;5004926;28;20053;-74
2023/01/06 07:59:57;;;;;;;9.40;0.75;;;9.00;99.90;;;;;;4987001;28;20046;-74
2023/01/06 08:02:23;;;;;;;3.03;0.67;;;9.00;99.90;;;;;;4986923;28;20057;-73
2023/01/06 08:04:49;;;;;;;4.47;0.68;;;8.80;99.90;;;;;;4985758;28;20496;-74
2023/01/06 08:07:15;;;;;;;4.82;0.60;;;8.80;99.90;;;;;;4989726;28;20493;-74
2023/01/06 08:09:41;;;;;;;5.65;0.90;;;8.70;99.90;;;;;;5004265;28;20042;-74
2023/01/06 08:12:07;;;;;;;5.87;0.47;;;8.60;99.90;;;;;;5005657;28;20045;-73
2023/01/06 08:14:33;;;;;;;9.55;1.10;;;8.60;99.90;;;;;;4985980;28;20329;-73
2023/01/06 08:16:58;;;;;;;5.17;0.90;;;8.50;99.90;;;;;;4991232;28;20073;-74
2023/01/06 08:19:24;;;;;;;3.43;1.30;;;8.50;99.90;;;;;;4990214;28;20474;-74
2023/01/06 08:21:50;;;;;;;5.37;0.60;;;8.40;99.90;;;;;;4989060;28;20046;-74
2023/01/06 08:24:15;;;;;;;2.33;0.53;;;8.30;99.90;;;;;;5007915;28;20042;-74
2023/01/06 08:26:41;;;;;;;6.80;0.60;;;8.30;99.90;;;;;;4987845;28;20668;-74
2023/01/06 08:29:07;;;;;;;1.47;0.67;;;8.20;99.90;;;;;;4989502;28;20096;-73
2023/01/06 08:31:36;;;;;;;2.05;0.47;;;8.20;99.90;;;;;;4986669;28;20033;-74
2023/01/06 08:34:01;;;;;;;4.97;0.60;;;8.10;99.90;;;;;;5014449;28;20066;-74
2023/01/06 08:36:27;;;;;;;4.23;0.80;;;8.10;99.90;;;;;;4984462;28;20084;-73
2023/01/06 08:38:53;;;;;;;4.57;0.93;;;8.10;99.90;;;;;;4976863;28;20081;-74
2023/01/06 08:41:19;;;;;;;5.35;0.90;;;8.10;99.90;;;;;;4974554;28;20507;-74
2023/01/06 08:43:45;;;;;;;7.65;1.52;;;8.10;99.90;;;;;;5006723;28;20428;-74
2023/01/06 08:46:14;;;;;;;2.90;0.77;;;8.00;99.90;;;;;;5007291;28;20054;-74
2023/01/06 08:48:41;;;;;;;5.32;0.90;;;8.00;99.90;;;;;;5006188;28;20038;-74
2023/01/06 08:51:10;;;;;;;8.45;0.70;;;8.00;99.90;;;;;;4983121;28;20093;-74
2023/01/06 08:53:36;;;;;;;5.43;1.05;;;8.00;99.90;;;;;;4992208;28;20095;-74
2023/01/06 08:56:02;;;;;;;7.80;1.10;;;8.00;99.90;;;;;;5004629;28;20638;-74
2023/01/06 08:58:28;;;;;;;3.72;0.90;;;8.00;99.90;;;;;;4986729;28;20042;-73
2023/01/06 09:00:53;;;;;;;6.63;1.73;;;8.00;99.90;;;;;;5005349;28;20104;-74
2023/01/06 09:03:19;;;;;;;5.73;0.80;;;8.10;99.90;;;;;;4993874;28;20275;-74
2023/01/06 09:05:53;;;;;;;7.20;1.08;;;8.00;99.90;;;;;;4988935;28;20037;-74
2023/01/06 09:08:19;;;;;;;4.72;0.98;;;8.00;99.90;;;;;;4985393;28;20069;-72
2023/01/06 09:10:44;;;;;;;9.37;0.97;;;8.10;99.90;;;;;;4987803;28;20046;-73
2023/01/06 09:13:10;;;;;;;3.87;0.87;;;8.10;99.90;;;;;;5005242;28;20049;-72
2023/01/06 09:15:40;;;;;;;4.87;1.10;;;8.10;99.90;;;;;;5007505;28;20077;-72
2023/01/06 09:18:07;;;;;;;7.57;0.85;;;8.10;99.90;;;;;;5006486;28;20407;-73
2023/01/06 09:20:34;;;;;;;3.45;0.85;;;8.10;99.90;;;;;;4987399;28;20503;-72
2023/01/06 09:23:00;;;;;;;6.10;1.15;;;8.10;99.90;;;;;;4988209;28;20050;-72
2023/01/06 09:25:25;;;;;;;8.07;1.20;;;8.10;99.90;;;;;;5006504;28;20049;-73
2023/01/06 09:27:51;;;;;;;8.38;0.95;;;8.20;99.90;;;;;;5006785;28;20606;-72
2023/01/06 09:30:17;;;;;;;6.70;1.00;;;8.20;99.90;;;;;;4986989;28;20042;-72
2023/01/06 09:32:42;;;;;;;9.23;1.17;;;8.30;99.90;;;;;;5007396;28;20076;-73
2023/01/06 09:35:09;;;;;;;11.50;1.50;;;8.40;99.90;;;;;;5008911;28;20041;-72
2023/01/06 09:37:35;;;;;;;;;;;8.40;99.90;;;;;;4990629;28;20427;-72
2023/01/06 09:40:01;;;;;;;5.07;0.90;;;8.40;99.90;;;;;;4992633;28;19932;-72
2023/01/06 09:42:48;;;;;;;5.47;1.13;;;8.50;99.90;;;;;;5010173;28;20041;-72
2023/01/06 09:45:19;;;;;;;;;;;8.50;99.90;;;;;;4989745;28;20053;-73
2023/01/06 09:47:56;;;;;;;6.70;0.93;;;8.50;99.90;;;;;;4975056;28;20058;-73
2023/01/06 09:50:24;;;;;;;9.27;1.27;;;8.60;99.90;;;;;;5007147;28;20050;-72
2023/01/06 09:53:16;;;;;;;13.23;1.42;;;8.60;99.90;;;;;;5010248;28;20045;-72
2023/01/06 09:55:46;;;;;;;5.25;1.52;;;8.60;99.90;;;;;;5008060;28;20150;-72
2023/01/06 09:58:20;;;;;;;7.10;1.17;;;8.70;99.90;;;;;;5009036;28;20486;-73
2023/01/06 10:00:54;;;;;;;5.47;0.85;;;8.70;99.90;;;;;;5004167;28;20056;-73
2023/01/06 10:03:23;;;;;;;8.23;1.23;;;8.70;99.90;;;;;;4988371;28;20042;-72
2023/01/06 10:06:08;;;;;;;7.95;1.20;;;8.80;99.90;;;;;;4989407;28;20041;-72
2023/01/06 10:08:49;;;;;;;3.83;0.70;;;8.90;99.90;;;;;;5002494;28;20056;-72
2023/01/06 10:11:37;;;;;;;6.38;0.77;;;8.90;99.90;;;;;;4992723;28;20507;-78
2023/01/06 10:14:21;;;;;;;;;;;8.90;99.90;;;;;;5009427;28;20048;-72
2023/01/06 10:17:08;;;;;;;3.08;1.10;;;9.00;99.90;;;;;;5002180;28;20612;-72
2023/01/06 10:19:57;;;;;;;6.20;0.80;;;9.00;99.90;;;;;;4990959;28;20504;-72
2023/01/06 10:23:00;;;;;;;13.02;1.52;;;9.00;99.90;;;;;;4990593;28;20153;-72
2023/01/06 10:25:37;;;;;;;4.85;1.15;;;9.00;99.90;;;;;;4987835;28;20129;-72
2023/01/06 10:28:28;;;;;;;7.07;1.03;;;9.10;99.90;;;;;;4990656;28;20530;-72
2023/01/06 10:30:57;;;;;;;7.88;0.88;;;9.10;99.90;;;;;;4990402;28;20053;-72
2023/01/06 10:33:29;;;;;;;3.92;1.00;;;9.20;99.90;;;;;;5008572;28;20345;-71
2023/01/06 10:35:56;;;;;;;4.32;0.85;;;9.20;99.90;;;;;;5003320;28;20120;-71
2023/01/06 10:38:24;;;;;;;;;;;9.20;99.90;;;;;;4986500;28;20563;-72
2023/01/06 10:40:52;;;;;;;4.88;0.90;;;9.20;99.90;;;;;;5008363;28;19918;-72
2023/01/06 10:43:21;;;;;;;2.58;0.82;;;9.20;99.90;;;;;;5003006;28;20520;-73
2023/01/06 10:45:47;;;;;;;5.97;0.95;;;9.30;99.90;;;;;;4988848;28;20550;-72
2023/01/06 10:48:19;;;;;;;7.25;0.88;;;9.20;99.90;;;;;;4978573;28;20052;-73
2023/01/06 10:50:45;;;;;;;3.17;0.47;;;9.40;99.90;;;;;;4993486;28;20125;-73
2023/01/06 10:53:12;;;;;;;2.90;0.77;;;9.40;99.90;;;;;;4973041;28;20131;-73
2023/01/06 10:55:51;;;;;;;7.60;1.52;;;9.40;99.90;;;;;;5011832;28;20098;-72
2023/01/06 10:58:29;;;;;;;6.18;0.88;;;9.50;99.90;;;;;;4992139;28;20041;-72
2023/01/06 11:01:15;;;;;;;7.05;0.77;;;9.50;99.90;;;;;;4982781;28;20380;-73
2023/01/06 11:03:43;;;;;;;8.15;1.30;;;9.60;99.90;;;;;;4990797;28;20045;-73
2023/01/06 11:06:26;;;;;;;7.53;1.05;;;9.60;99.90;;;;;;5004260;28;20515;-72
2023/01/06 11:08:52;;;;;;;7.32;1.38;;;9.70;99.90;;;;;;4987449;28;20277;-73
2023/01/06 11:11:19;;;;;;;4.30;0.77;;;9.70;99.90;;;;;;5006784;28;20091;-73
2023/01/06 11:13:49;;;;;;;4.40;1.27;;;9.70;99.90;;;;;;5001436;28;20065;-73
2023/01/06 11:16:27;;;;;;;8.70;1.10;;;9.70;99.90;;;;;;5008683;28;20084;-72
2023/01/06 11:19:04;;;;;;;5.25;1.00;;;9.70;99.90;;;;;;4984747;28;20176;-73
2023/01/06 11:21:56;;;;;;;5.20;0.80;;;9.80;99.90;;;;;;4972683;28;20042;-73
2023/01/06 11:24:24;;;;;;;8.52;1.23;;;9.80;99.90;;;;;;4987623;28;20534;-72
2023/01/06 11:26:51;;;;;;;6.80;1.20;;;9.80;99.90;;;;;;5005854;28;20044;-72
2023/01/06 11:29:24;;;;;;;10.05;1.15;;;9.80;99.90;;;;;;4987607;28;20100;-72
2023/01/06 11:31:50;;;;;;;4.28;0.85;;;9.90;99.90;;;;;;4984469;28;20068;-72
2023/01/06 11:34:25;;;;;;;3.25;0.80;;;9.90;99.90;;;;;;5007916;28;20038;-72
2023/01/06 11:36:51;;;;;;;8.82;1.33;;;9.90;99.90;;;;;;4986917;28;20400;-72
2023/01/06 11:39:34;;;;;;;8.40;0.82;;;10.00;99.90;;;;;;4984385;28;20108;-72
2023/01/06 11:42:17;;;;;;;5.70;0.82;;;10.00;99.90;;;;;;4970431;28;20057;-73
2023/01/06 11:47:17;;;;;;;8.05;1.40;;;10.10;99.90;;;;;;4979148;28;20070;-70
2023/01/06 11:49:59;;;;;;;9.82;1.13;;;10.10;99.90;;;;;;4976813;28;20054;-72
2023/01/06 11:52:31;;;;;;;7.70;0.98;;;10.20;99.90;;;;;;4964594;28;20104;-71
2023/01/06 11:55:05;;;;;;;11.90;1.25;;;10.10;99.90;;;;;;4967461;28;20062;-71
2023/01/06 11:57:47;;;;;;;7.10;0.85;;;10.20;99.90;;;;;;4965100;28;20042;-69
2023/01/06 12:00:35;;;;;;;2.85;0.60;;;10.20;99.90;;;;;;4971344;28;20705;-71
2023/01/06 12:03:09;;;;;;;6.78;1.00;;;10.20;99.90;;;;;;4990155;28;20061;-69
2023/01/06 12:05:55;;;;;;;4.63;0.82;;;10.20;99.90;;;;;;4974028;28;20112;-69
2023/01/06 12:08:43;;;;;;;10.50;1.63;;;10.10;99.90;;;;;;4974884;28;20046;-69
2023/01/06 12:11:38;;;;;;;6.57;1.40;;;10.10;99.90;;;;;;4986249;28;20233;-71
2023/01/06 12:14:04;;;;;;;7.43;1.52;;;10.10;99.90;;;;;;4952043;28;20266;-71
2023/01/06 12:16:47;;;;;;;6.15;1.63;;;10.00;99.90;;;;;;4972075;28;20616;-69
2023/01/06 12:19:17;;;;;;;8.60;1.40;;;10.00;99.90;;;;;;4982113;28;20053;-70
2023/01/06 12:21:43;;;;;;;9.43;0.80;;;10.00;99.90;;;;;;4973705;28;20104;-70
2023/01/06 12:24:14;;;;;;;4.33;0.83;;;9.90;99.90;;;;;;4964171;28;20554;-70
2023/01/06 12:26:41;;;;;;;3.63;0.90;;;9.90;99.90;;;;;;4976766;28;20112;-71
2023/01/06 12:29:10;;;;;;;5.57;1.00;;;9.80;99.90;;;;;;4962523;28;20042;-71
2023/01/06 12:31:59;;;;;;;6.18;1.23;;;9.80;99.90;;;;;;4971237;28;20071;-71
2023/01/06 12:34:37;;;;;;;12.32;1.60;;;9.70;99.90;;;;;;4972105;28;20054;-70
2023/01/06 12:37:09;;;;;;;7.35;0.98;;;9.70;99.90;;;;;;4973647;28;20454;-70
2023/01/06 12:39:54;;;;;;;3.15;0.75;;;9.60;99.90;;;;;;4980877;28;20433;-71
2023/01/06 12:42:38;;;;;;;6.07;1.00;;;9.60;99.90;;;;;;4964048;28;20129;-70
2023/01/06 12:45:13;;;;;;;4.75;1.10;;;9.60;99.90;;;;;;4978175;28;20074;-70
2023/01/06 12:47:40;;;;;;;15.88;1.48;;;9.70;99.90;;;;;;4978587;28;20046;-72
2023/01/06 12:50:09;;;;;;;8.97;1.37;;;9.70;99.90;;;;;;4965912;28;20890;-69
2023/01/06 12:52:41;;;;;;;8.85;1.23;;;9.70;99.90;;;;;;4932060;28;20065;-70
2023/01/06 12:55:15;;;;;;;10.88;1.27;;;9.70;99.90;;;;;;4939243;28;20448;-70
2023/01/06 12:58:11;;;;;;;4.90;1.13;;;9.70;99.90;;;;;;4939814;28;20307;-71
2023/01/06 13:00:53;;;;;;;6.10;1.13;;;9.60;99.90;;;;;;4973097;28;20606;-71
2023/01/06 13:03:19;;;;;;;7.78;1.30;;;9.60;99.90;;;;;;4967115;28;20093;-71
2023/01/06 13:06:07;;;;;;;4.27;1.60;;;9.50;99.90;;;;;;4971468;28;20444;-70
2023/01/06 13:09:07;;;;;;;4.68;0.80;;;9.50;99.90;;;;;;4981724;28;20054;-70
2023/01/06 13:11:56;;;;;;;5.45;1.63;;;9.50;99.90;;;;;;4988130;28;20579;-70
2023/01/06 13:15:06;;;;;;;4.70;1.10;;;9.40;99.90;;;;;;4966801;28;20045;-69